Time;durP1;ratioP1;P1;durP2;ratioP2;P2;SDS_P1;SDS_P2;PMS_P1;PMS_P2;Temp;Humidity;BMP_temperature;BMP_pressure;BME280_temperature;BME280_humidity;BME280_pressure;Samples;Min_cycle;Max_cycle;Signal;HPM_P1;HPM_P2
2022/05/26 00:01:13;;;;;;;3.17;2.25;;;17.50;60.30;;;;;;5093224;28;20074;-85
2022/05/26 00:03:42;;;;;;;3.75;2.45;;;17.40;60.40;;;;;;5093197;28;20017;-86
2022/05/26 00:06:10;;;;;;;5.00;2.10;;;17.40;60.50;;;;;;5093397;28;20020;-85
2022/05/26 00:08:37;;;;;;;2.60;2.30;;;17.30;60.50;;;;;;5092607;28;20051;-86
2022/05/26 00:11:09;;;;;;;5.10;2.40;;;17.20;60.60;;;;;;5093156;28;20135;-85
2022/05/26 00:13:36;;;;;;;6.43;2.60;;;17.20;60.80;;;;;;5094400;28;20027;-85
2022/05/26 00:16:03;;;;;;;4.53;2.33;;;17.20;60.90;;;;;;5094137;28;20020;-86
2022/05/26 00:18:28;;;;;;;5.28;2.83;;;17.10;60.90;;;;;;5109968;28;20025;-86
2022/05/26 00:20:54;;;;;;;4.78;2.25;;;17.10;61.00;;;;;;5092410;28;20020;-87
2022/05/26 00:23:20;;;;;;;7.05;2.42;;;17.00;61.10;;;;;;5092927;28;20545;-86
2022/05/26 00:25:46;;;;;;;4.25;2.58;;;17.00;61.10;;;;;;5110068;28;20021;-86
2022/05/26 00:28:12;;;;;;;6.47;2.80;;;17.00;61.00;;;;;;5093208;28;20378;-86
2022/05/26 00:30:37;;;;;;;7.38;2.40;;;17.00;61.00;;;;;;5092971;28;20028;-86
2022/05/26 00:33:05;;;;;;;5.05;2.38;;;17.00;60.80;;;;;;5094221;28;20035;-86
2022/05/26 00:35:34;;;;;;;2.60;2.22;;;17.00;60.70;;;;;;5092654;28;20386;-86
2022/05/26 00:38:04;;;;;;;2.92;2.40;;;16.90;60.50;;;;;;5092875;28;20036;-85
2022/05/26 00:40:31;;;;;;;2.47;2.28;;;17.00;60.60;;;;;;5093458;28;20058;-86
2022/05/26 00:42:57;;;;;;;3.40;2.20;;;17.00;60.40;;;;;;5092793;28;20425;-86
2022/05/26 00:45:23;;;;;;;4.32;2.38;;;16.90;60.20;;;;;;5092860;28;20111;-86
2022/05/26 00:47:49;;;;;;;2.92;2.05;;;16.90;60.20;;;;;;5092449;28;20446;-85
2022/05/26 00:50:27;;;;;;;4.20;2.28;;;16.90;60.00;;;;;;5093785;28;20031;-86
2022/05/26 00:53:13;;;;;;;2.55;2.10;;;16.90;60.10;;;;;;5092750;28;20435;-85
2022/05/26 00:55:55;;;;;;;5.28;2.25;;;16.90;60.00;;;;;;5092618;28;20036;-86
2022/05/26 00:58:28;;;;;;;4.75;2.20;;;16.90;59.90;;;;;;5094022;28;20028;-86
2022/05/26 01:00:55;;;;;;;6.68;2.33;;;16.90;60.00;;;;;;5092516;28;20028;-87
2022/05/26 01:03:47;;;;;;;2.30;2.10;;;16.90;60.00;;;;;;5092709;28;20024;-85
2022/05/26 01:06:21;;;;;;;3.90;1.95;;;16.80;59.80;;;;;;5093824;28;20486;-85
2022/05/26 01:08:49;;;;;;;3.65;2.53;;;16.90;59.90;;;;;;5092520;28;20482;-86
2022/05/26 01:11:15;;;;;;;5.40;2.17;;;16.80;59.70;;;;;;5093933;28;20105;-86
2022/05/26 01:13:47;;;;;;;3.67;1.92;;;16.80;59.70;;;;;;5092523;28;20020;-86
2022/05/26 01:16:39;;;;;;;3.70;2.25;;;16.80;59.60;;;;;;5092340;28;20111;-85
2022/05/26 01:19:04;;;;;;;4.22;2.25;;;16.80;59.90;;;;;;5092100;28;20077;-85
2022/05/26 01:21:37;;;;;;;4.40;2.50;;;16.80;59.60;;;;;;5093541;28;20024;-86
2022/05/26 01:24:21;;;;;;;2.50;2.30;;;16.80;59.40;;;;;;5092427;28;20020;-85
2022/05/26 01:27:13;;;;;;;4.25;2.35;;;16.80;59.10;;;;;;5092421;28;20016;-85
2022/05/26 01:30:03;;;;;;;3.03;2.10;;;16.80;59.10;;;;;;5093633;28;20581;-86
2022/05/26 01:32:38;;;;;;;6.20;2.50;;;16.80;59.10;;;;;;5093241;28;20039;-86
2022/05/26 01:35:21;;;;;;;5.07;2.10;;;16.80;58.90;;;;;;5095864;28;20105;-85
2022/05/26 01:38:07;;;;;;;2.78;1.98;;;16.80;59.10;;;;;;5097073;28;20024;-86
2022/05/26 01:41:02;;;;;;;2.58;2.20;;;16.70;58.90;;;;;;5071902;28;20040;-86
2022/05/26 01:44:08;;;;;;;4.25;2.30;;;16.70;58.90;;;;;;5067949;28;20525;-85
2022/05/26 01:46:45;;;;;;;3.75;2.22;;;16.60;58.90;;;;;;5062707;28;20040;-86
2022/05/26 01:49:35;;;;;;;3.15;2.15;;;16.60;58.90;;;;;;5095699;28;20043;-86
2022/05/26 01:52:14;;;;;;;2.53;2.17;;;16.60;59.00;;;;;;5095620;28;20024;-85
2022/05/26 01:54:57;;;;;;;4.67;2.30;;;16.60;59.00;;;;;;5096763;28;20024;-85
2022/05/26 01:57:28;;;;;;;2.72;2.13;;;16.50;59.00;;;;;;5096607;28;20328;-85
2022/05/26 02:00:04;;;;;;;5.63;2.42;;;16.50;59.10;;;;;;5095415;28;20027;-86
2022/05/26 02:02:34;;;;;;;3.45;2.20;;;16.50;58.80;;;;;;5096370;28;20024;-85
2022/05/26 02:05:23;;;;;;;5.07;2.17;;;16.50;58.70;;;;;;5095528;28;20557;-85
2022/05/26 02:07:53;;;;;;;2.90;2.00;;;16.50;58.80;;;;;;5096216;28;20094;-86
2022/05/26 02:10:28;;;;;;;3.05;2.28;;;16.50;58.60;;;;;;5096428;28;20051;-85
2022/05/26 02:13:03;;;;;;;4.25;2.20;;;16.50;58.60;;;;;;5096448;28;20380;-85
2022/05/26 02:15:37;;;;;;;4.50;2.30;;;16.50;58.70;;;;;;5096388;28;20103;-86
2022/05/26 02:18:07;;;;;;;4.78;2.40;;;16.50;58.50;;;;;;5096212;28;20454;-86
2022/05/26 02:20:41;;;;;;;6.35;5.03;;;16.50;58.30;;;;;;5094856;28;20027;-85
2022/05/26 02:23:37;;;;;;;8.25;5.43;;;16.50;58.40;;;;;;5095084;28;20012;-86
2022/05/26 02:26:04;;;;;;;3.97;3.50;;;16.50;58.40;;;;;;5094926;28;20073;-85
2022/05/26 02:31:19;;;;;;;6.70;3.10;;;16.40;58.50;;;;;;5096404;28;20077;-85
2022/05/26 02:33:45;;;;;;;4.05;2.50;;;16.30;58.40;;;;;;5094835;28;20024;-85
2022/05/26 02:36:12;;;;;;;4.72;3.20;;;16.30;58.50;;;;;;5096027;28;20020;-85
2022/05/26 02:38:38;;;;;;;6.03;4.03;;;16.30;58.80;;;;;;5095543;28;20020;-85
2022/05/26 02:41:03;;;;;;;5.55;4.28;;;16.30;58.70;;;;;;5094676;28;20115;-86
2022/05/26 02:43:31;;;;;;;6.53;3.33;;;16.30;58.70;;;;;;5094349;28;20034;-86
2022/05/26 02:46:34;;;;;;;7.57;3.45;;;16.20;58.50;;;;;;5094331;28;20081;-85
2022/05/26 02:49:28;;;;;;;3.30;2.70;;;16.20;58.40;;;;;;5095692;28;20032;-86
2022/05/26 02:51:56;;;;;;;3.97;2.70;;;16.20;58.60;;;;;;5094225;28;20024;-85
2022/05/26 02:54:25;;;;;;;3.20;2.50;;;16.20;58.50;;;;;;5094455;28;20024;-86
2022/05/26 02:57:00;;;;;;;4.72;2.50;;;16.10;58.60;;;;;;5095478;28;20494;-86
2022/05/26 02:59:44;;;;;;;3.65;2.30;;;16.10;58.50;;;;;;5094344;28;20036;-85
2022/05/26 03:02:33;;;;;;;8.93;2.40;;;16.20;58.80;;;;;;5095221;28;20016;-86
2022/05/26 03:05:17;;;;;;;3.70;2.28;;;16.10;58.30;;;;;;5094320;28;20046;-85
2022/05/26 03:07:46;;;;;;;4.25;2.28;;;16.10;58.70;;;;;;5093900;28;20023;-85
2022/05/26 03:10:15;;;;;;;2.25;2.05;;;16.20;58.50;;;;;;5094023;28;20043;-85
2022/05/26 03:12:40;;;;;;;4.72;2.63;;;16.30;58.60;;;;;;5093977;28;20028;-85
2022/05/26 03:15:08;;;;;;;2.17;1.98;;;16.30;58.20;;;;;;5095078;28;20038;-85
2022/05/26 03:17:34;;;;;;;2.58;2.00;;;16.40;58.10;;;;;;5093624;28;20035;-85
2022/05/26 03:20:00;;;;;;;5.63;2.25;;;16.40;58.20;;;;;;5093663;28;20512;-85
2022/05/26 03:22:26;;;;;;;5.15;2.40;;;16.50;58.10;;;;;;5093695;28;20024;-86
2022/05/26 03:24:52;;;;;;;2.40;2.20;;;16.50;57.90;;;;;;5093611;28;20020;-85
2022/05/26 03:27:18;;;;;;;7.47;2.90;;;16.60;57.90;;;;;;5093588;28;20020;-84
2022/05/26 03:29:44;;;;;;;5.03;2.13;;;16.60;58.10;;;;;;5094909;28;20086;-85
2022/05/26 03:32:09;;;;;;;4.32;2.50;;;16.60;58.10;;;;;;5110637;28;20032;-86
2022/05/26 03:42:50;;;;;;;2.13;1.90;;;16.50;58.90;;;;;;5094956;28;20043;-86
2022/05/26 03:45:22;;;;;;;4.13;2.17;;;16.50;59.00;;;;;;5093210;28;20093;-83
2022/05/26 03:47:48;;;;;;;2.72;2.20;;;16.70;59.10;;;;;;5093141;28;20016;-85
2022/05/26 03:50:15;;;;;;;4.47;2.10;;;16.60;58.80;;;;;;5093206;28;20370;-85
2022/05/26 03:52:41;;;;;;;3.33;2.30;;;16.80;59.10;;;;;;5093205;28;20024;-86
2022/05/26 03:55:07;;;;;;;4.25;2.30;;;16.80;58.90;;;;;;5092840;28;20038;-86
2022/05/26 03:57:32;;;;;;;2.72;2.25;;;16.90;59.00;;;;;;5093194;28;20028;-86
2022/05/26 03:59:59;;;;;;;4.65;2.10;;;16.90;58.90;;;;;;5110188;28;20089;-85
2022/05/26 04:02:26;;;;;;;7.15;2.28;;;16.90;58.80;;;;;;5093284;28;20074;-85
2022/05/26 04:04:52;;;;;;;3.28;2.40;;;16.90;59.10;;;;;;5093031;28;20567;-86
2022/05/26 04:07:17;;;;;;;3.70;2.20;;;16.80;59.00;;;;;;5093003;28;20058;-85
2022/05/26 04:09:43;;;;;;;4.47;2.30;;;16.80;59.30;;;;;;5093099;28;20080;-86
2022/05/26 04:12:11;;;;;;;6.10;2.20;;;16.70;59.50;;;;;;5092940;28;20028;-86
2022/05/26 04:14:37;;;;;;;6.85;3.00;;;16.70;59.70;;;;;;5092945;28;20394;-85
2022/05/26 04:17:04;;;;;;;4.85;2.63;;;16.60;59.90;;;;;;5092986;28;20020;-86
2022/05/26 04:19:30;;;;;;;2.83;2.30;;;16.60;59.90;;;;;;5093693;28;20036;-86
2022/05/26 04:24:40;;;;;;;3.53;2.20;;;16.70;60.30;;;;;;5094367;28;20031;-85
2022/05/26 04:27:06;;;;;;;5.22;2.40;;;16.70;60.50;;;;;;5092939;28;20023;-86
2022/05/26 04:29:34;;;;;;;3.17;2.10;;;16.70;60.60;;;;;;5094000;28;20027;-85
2022/05/26 04:31:59;;;;;;;3.55;2.13;;;16.70;60.80;;;;;;5093168;28;20036;-85
2022/05/26 04:34:25;;;;;;;4.65;2.40;;;16.70;60.80;;;;;;5092699;28;20039;-86
2022/05/26 04:36:51;;;;;;;3.75;2.30;;;16.70;60.90;;;;;;5092557;28;20394;-83
2022/05/26 04:39:17;;;;;;;3.78;2.10;;;16.70;61.40;;;;;;5092377;28;20107;-86
2022/05/26 04:41:44;;;;;;;5.47;2.20;;;16.60;61.50;;;;;;5075684;28;20034;-84
2022/05/26 04:44:10;;;;;;;2.38;2.17;;;16.60;61.80;;;;;;5092800;28;20024;-84
2022/05/26 04:46:38;;;;;;;6.00;2.90;;;16.50;62.10;;;;;;5092749;28;20051;-85
2022/05/26 04:49:04;;;;;;;16.48;8.18;;;16.50;62.30;;;;;;5092937;28;20467;-84
2022/05/26 04:51:31;;;;;;;4.43;2.90;;;16.50;62.50;;;;;;5092456;28;20577;-85
2022/05/26 04:53:57;;;;;;;20.95;12.00;;;16.50;62.80;;;;;;5092330;28;20459;-84
2022/05/26 04:56:23;;;;;;;20.73;11.32;;;16.50;63.00;;;;;;5092659;28;20028;-85
2022/05/26 04:58:50;;;;;;;18.27;8.77;;;16.50;63.20;;;;;;5092358;28;20031;-85
2022/05/26 05:01:17;;;;;;;8.02;5.68;;;16.50;63.50;;;;;;5092841;28;20066;-86
2022/05/26 05:03:45;;;;;;;2.83;2.60;;;16.50;63.70;;;;;;5092628;28;20080;-85
2022/05/26 05:06:11;;;;;;;2.47;2.28;;;16.50;63.80;;;;;;5109377;28;20027;-85
2022/05/26 05:08:37;;;;;;;4.63;3.50;;;16.50;64.90;;;;;;5094738;28;20418;-85
2022/05/26 05:11:03;;;;;;;5.78;5.25;;;16.50;65.30;;;;;;5096399;28;20386;-85
2022/05/26 05:13:29;;;;;;;4.05;3.45;;;16.60;65.60;;;;;;5095941;28;20024;-86
2022/05/26 05:16:10;;;;;;;7.10;3.63;;;16.50;65.70;;;;;;5096215;28;20020;-86
2022/05/26 05:18:36;;;;;;;7.90;3.30;;;16.50;66.00;;;;;;5095715;28;20020;-83
2022/05/26 05:21:07;;;;;;;8.18;5.50;;;16.50;66.30;;;;;;5096007;28;20032;-86
2022/05/26 05:23:39;;;;;;;5.85;4.50;;;16.40;66.80;;;;;;5096080;28;20024;-84
2022/05/26 05:26:09;;;;;;;6.68;4.72;;;16.40;66.70;;;;;;5095996;28;20168;-85
2022/05/26 05:28:39;;;;;;;5.80;3.75;;;16.40;66.90;;;;;;5095648;28;20462;-85
2022/05/26 05:31:14;;;;;;;7.15;3.88;;;16.40;67.10;;;;;;5097066;28;20471;-84
2022/05/26 05:33:49;;;;;;;4.15;3.17;;;16.30;67.40;;;;;;5097078;28;20028;-85
2022/05/26 05:36:21;;;;;;;9.02;4.22;;;16.40;67.90;;;;;;5095651;28;20016;-85
2022/05/26 05:38:48;;;;;;;9.30;3.15;;;16.30;68.10;;;;;;5095782;28;20463;-86
2022/05/26 05:41:14;;;;;;;5.35;3.42;;;16.20;68.40;;;;;;5096819;28;20079;-86
2022/05/26 05:43:40;;;;;;;3.70;3.10;;;16.20;68.80;;;;;;5096629;28;20028;-85
2022/05/26 05:46:08;;;;;;;3.33;2.70;;;16.20;69.20;;;;;;5078576;28;20038;-84
2022/05/26 05:48:35;;;;;;;9.57;3.95;;;16.20;71.10;;;;;;5096829;28;20471;-87
2022/05/26 05:51:01;;;;;;;8.65;3.03;;;16.10;73.40;;;;;;5095869;28;20118;-86
2022/05/26 05:53:27;;;;;;;5.60;4.00;;;16.00;76.10;;;;;;5096447;28;20028;-87
2022/05/26 05:55:53;;;;;;;4.88;3.88;;;15.80;77.70;;;;;;5095910;28;20031;-88
2022/05/26 05:58:19;;;;;;;4.28;3.60;;;15.60;79.30;;;;;;5095584;28;20055;-87
2022/05/26 06:00:44;;;;;;;6.40;4.60;;;15.40;82.20;;;;;;5078294;28;20036;-87
2022/05/26 06:03:11;;;;;;;4.90;3.70;;;15.20;84.80;;;;;;5096515;28;20023;-85
2022/05/26 06:05:37;;;;;;;5.63;3.70;;;14.90;87.50;;;;;;5112092;28;20539;-86
2022/05/26 06:08:04;;;;;;;5.38;4.40;;;14.70;90.80;;;;;;5112153;28;20084;-86
2022/05/26 06:10:31;;;;;;;7.57;5.00;;;14.50;93.60;;;;;;5095375;28;20043;-86
2022/05/26 06:12:57;;;;;;;5.68;5.13;;;14.30;97.20;;;;;;5095357;28;20390;-85
2022/05/26 06:15:24;;;;;;;9.32;4.90;;;14.20;99.90;;;;;;5095183;28;20028;-87
2022/05/26 06:17:50;;;;;;;7.68;5.13;;;14.10;99.90;;;;;;5094870;28;20024;-84
2022/05/26 06:20:17;;;;;;;14.10;6.82;;;13.90;99.90;;;;;;5094451;28;20050;-86
2022/05/26 06:22:47;;;;;;;10.95;7.22;;;13.90;99.90;;;;;;5095115;28;20359;-87
2022/05/26 06:25:14;;;;;;;;;;;13.90;99.90;;;;;;5095472;28;20103;-86
2022/05/26 06:30:30;;;;;;;9.23;6.07;;;13.90;99.90;;;;;;5096269;28;20089;-87
2022/05/26 06:38:31;;;;;;;6.45;4.90;;;14.20;99.90;;;;;;5096378;28;20067;-87
2022/05/26 06:40:56;;;;;;;6.82;4.70;;;14.20;99.90;;;;;;5095748;28;20056;-86
2022/05/26 06:43:22;;;;;;;5.75;5.10;;;14.10;99.90;;;;;;5078155;28;20036;-86
2022/05/26 06:45:49;;;;;;;5.22;4.72;;;14.10;99.90;;;;;;5077663;28;20024;-86
2022/05/26 06:48:15;;;;;;;6.70;4.88;;;14.10;99.90;;;;;;5094457;28;20390;-86
2022/05/26 06:50:41;;;;;;;6.90;4.78;;;14.20;99.90;;;;;;5077388;28;20028;-87
2022/05/26 06:53:08;;;;;;;6.05;4.47;;;14.30;99.90;;;;;;5094677;28;20035;-86
2022/05/26 06:55:33;;;;;;;5.15;4.15;;;14.20;99.90;;;;;;5095259;28;20036;-86
2022/05/26 06:57:59;;;;;;;4.95;4.40;;;14.20;99.90;;;;;;5077336;28;20039;-85
2022/05/26 07:00:25;;;;;;;5.10;4.60;;;14.20;99.90;;;;;;5111056;28;20483;-85
2022/05/26 07:02:53;;;;;;;6.72;4.78;;;14.20;99.90;;;;;;5094203;28;20027;-84
2022/05/26 07:05:20;;;;;;;7.82;4.60;;;14.20;99.90;;;;;;5094665;28;20375;-85
2022/05/26 07:07:46;;;;;;;6.80;4.45;;;14.20;99.90;;;;;;5094029;28;20031;-87
2022/05/26 07:10:13;;;;;;;4.88;4.47;;;14.20;99.90;;;;;;5095424;28;20024;-85
2022/05/26 07:12:40;;;;;;;5.47;4.50;;;14.20;99.90;;;;;;5094105;28;20027;-86
2022/05/26 07:15:07;;;;;;;5.50;4.80;;;14.20;99.90;;;;;;5094188;28;20020;-86
2022/05/26 07:17:34;;;;;;;4.88;4.38;;;14.20;99.90;;;;;;5094415;28;20047;-86
2022/05/26 07:20:00;;;;;;;5.50;4.50;;;14.20;99.90;;;;;;5076969;28;20493;-86
2022/05/26 07:22:26;;;;;;;5.80;4.72;;;14.20;99.90;;;;;;5093722;28;20485;-86
2022/05/26 07:24:51;;;;;;;6.43;5.05;;;14.30;99.90;;;;;;5094548;28;20090;-86
2022/05/26 07:27:18;;;;;;;6.88;4.80;;;14.20;99.90;;;;;;5093549;28;20023;-85
2022/05/26 07:29:44;;;;;;;7.38;4.95;;;14.20;99.90;;;;;;5094279;28;20486;-85
2022/05/26 07:32:09;;;;;;;5.85;5.25;;;14.20;99.90;;;;;;5093342;28;20067;-87
2022/05/26 07:34:35;;;;;;;8.23;5.70;;;14.10;99.90;;;;;;5076859;28;20364;-86
2022/05/26 07:42:33;;;;;;;10.75;6.70;;;13.90;99.90;;;;;;5094004;28;20676;-84
2022/05/26 07:45:01;;;;;;;8.90;6.80;;;13.60;99.90;;;;;;5094476;28;20064;-84
2022/05/26 07:47:27;;;;;;;8.93;6.68;;;13.50;99.90;;;;;;5093162;28;20082;-84
2022/05/26 07:49:54;;;;;;;11.68;7.22;;;13.50;99.90;;;;;;5093377;28;20474;-85
2022/05/26 07:52:20;;;;;;;12.35;7.90;;;13.40;99.90;;;;;;5094223;28;20123;-85
2022/05/26 07:54:46;;;;;;;8.80;7.45;;;13.40;99.90;;;;;;5094656;28;20505;-83
2022/05/26 07:57:28;;;;;;;9.25;7.80;;;13.30;99.90;;;;;;5092965;28;20031;-84
2022/05/26 07:59:54;;;;;;;9.40;8.10;;;13.30;99.90;;;;;;5076314;28;20035;-84
2022/05/26 08:02:21;;;;;;;10.98;8.43;;;13.30;99.90;;;;;;5094468;28;20405;-84
2022/05/26 08:04:47;;;;;;;8.93;8.02;;;13.30;99.90;;;;;;5093402;28;20022;-84
2022/05/26 08:07:13;;;;;;;10.68;8.20;;;13.40;99.90;;;;;;5093131;28;20077;-85
2022/05/26 08:09:40;;;;;;;14.38;9.02;;;13.40;99.90;;;;;;5094239;28;20445;-84
2022/05/26 08:12:07;;;;;;;12.48;10.15;;;13.40;99.90;;;;;;5093141;28;20024;-86
2022/05/26 08:14:34;;;;;;;12.43;9.90;;;13.50;99.90;;;;;;5092404;28;20538;-84
2022/05/26 08:17:00;;;;;;;13.68;10.13;;;13.50;99.90;;;;;;5094186;28;20034;-84
2022/05/26 08:19:27;;;;;;;12.57;9.43;;;13.60;99.90;;;;;;5093205;28;20024;-84
2022/05/26 08:21:52;;;;;;;11.05;9.05;;;13.60;99.90;;;;;;5092784;28;20093;-85
2022/05/26 08:24:19;;;;;;;12.18;8.43;;;13.70;99.90;;;;;;5094033;28;20463;-84
2022/05/26 08:26:48;;;;;;;10.40;8.02;;;13.80;99.90;;;;;;5092832;28;20032;-84
2022/05/26 08:29:14;;;;;;;14.05;8.90;;;13.80;99.90;;;;;;5094185;28;20027;-84
2022/05/26 08:31:40;;;;;;;11.38;9.15;;;13.80;99.90;;;;;;5092657;28;20036;-85
2022/05/26 08:34:07;;;;;;;10.23;8.50;;;13.90;99.90;;;;;;5092465;28;20024;-84
2022/05/26 08:36:34;;;;;;;14.88;9.50;;;14.00;99.90;;;;;;5094329;28;20048;-86
2022/05/26 08:39:01;;;;;;;11.02;8.15;;;14.20;99.90;;;;;;5094108;28;20115;-86
2022/05/26 08:41:33;;;;;;;35.58;19.67;;;14.20;99.90;;;;;;5093658;28;20381;-85
2022/05/26 08:44:08;;;;;;;11.10;8.70;;;14.20;99.90;;;;;;5080636;28;20024;-85
2022/05/26 08:46:44;;;;;;;11.65;8.40;;;14.10;99.90;;;;;;5097059;28;20024;-86
2022/05/26 08:49:36;;;;;;;13.07;8.27;;;14.10;99.90;;;;;;5098240;28;20486;-86
2022/05/26 08:52:06;;;;;;;9.80;8.38;;;14.00;99.90;;;;;;5089945;28;20394;-87
2022/05/26 08:54:53;;;;;;;9.60;7.85;;;14.00;99.90;;;;;;5098113;28;20386;-90
2022/05/26 08:57:28;;;;;;;8.75;7.80;;;13.90;99.90;;;;;;5098082;28;20059;-88
2022/05/26 08:59:55;;;;;;;8.90;8.00;;;13.90;99.90;;;;;;5079801;28;20029;-87
2022/05/26 09:02:35;;;;;;;11.13;8.25;;;13.80;99.90;;;;;;5096881;28;20020;-86
2022/05/26 09:05:05;;;;;;;10.82;8.80;;;13.80;99.90;;;;;;5096640;28;20020;-86
2022/05/26 09:13:26;;;;;;;10.88;9.02;;;13.80;99.90;;;;;;5097885;28;20120;-84
2022/05/26 09:15:52;;;;;;;13.60;8.80;;;13.80;99.90;;;;;;5079975;28;20089;-85
2022/05/26 09:18:21;;;;;;;10.57;8.85;;;13.80;99.90;;;;;;5079506;28;20032;-87
2022/05/26 09:20:49;;;;;;;9.90;8.82;;;13.80;99.90;;;;;;5096425;28;20036;-86
2022/05/26 09:23:24;;;;;;;10.95;9.25;;;13.70;99.90;;;;;;5097514;28;20032;-85
2022/05/26 09:26:01;;;;;;;15.90;10.32;;;13.70;99.90;;;;;;5096202;28;20473;-87
2022/05/26 09:28:30;;;;;;;14.18;9.65;;;13.70;99.90;;;;;;5096287;28;20431;-84
2022/05/26 09:31:15;;;;;;;12.50;10.70;;;13.60;99.90;;;;;;5097336;28;20389;-85
2022/05/26 09:33:40;;;;;;;12.75;10.68;;;13.60;99.90;;;;;;5082328;28;20432;-86
2022/05/26 09:36:24;;;;;;;12.75;10.85;;;13.60;99.90;;;;;;5097408;28;20434;-86
2022/05/26 09:38:52;;;;;;;14.48;11.30;;;13.70;99.90;;;;;;5097111;28;20039;-85
2022/05/26 09:41:18;;;;;;;12.63;10.68;;;13.60;99.90;;;;;;5097135;28;20024;-85
2022/05/26 09:43:53;;;;;;;13.35;9.95;;;13.60;99.90;;;;;;5095770;28;20042;-86
2022/05/26 09:46:24;;;;;;;14.15;11.73;;;13.70;99.90;;;;;;5095837;28;20090;-86
2022/05/26 09:49:07;;;;;;;13.15;10.07;;;13.80;99.90;;;;;;5095939;28;20054;-86
2022/05/26 09:51:43;;;;;;;13.90;11.40;;;13.80;99.90;;;;;;5096946;28;20052;-86
2022/05/26 09:54:30;;;;;;;31.52;20.77;;;13.90;99.90;;;;;;5095924;28;20539;-86
2022/05/26 09:56:56;;;;;;;25.30;20.58;;;13.90;99.90;;;;;;5079068;28;20039;-85
2022/05/26 09:59:39;;;;;;;16.15;12.00;;;14.00;99.90;;;;;;5095194;28;20024;-85
2022/05/26 10:02:34;;;;;;;13.48;10.45;;;14.10;99.90;;;;;;5095675;28;20115;-85
2022/05/26 10:05:25;;;;;;;13.82;10.73;;;14.20;99.90;;;;;;5095691;28;20020;-84
2022/05/26 10:07:54;;;;;;;14.93;12.02;;;14.40;99.90;;;;;;5083901;28;20489;-84
2022/05/26 10:10:24;;;;;;;14.05;11.35;;;14.50;99.90;;;;;;5096303;28;20043;-84
2022/05/26 10:13:12;;;;;;;12.40;11.05;;;14.60;99.90;;;;;;5096353;28;20044;-84
2022/05/26 10:15:49;;;;;;;9.90;8.98;;;14.80;99.90;;;;;;5095437;28;20073;-84
2022/05/26 10:18:57;;;;;;;9.65;7.65;;;14.80;99.90;;;;;;5095016;28;20110;-84
2022/05/26 10:21:50;;;;;;;10.80;8.50;;;14.80;99.90;;;;;;5033595;28;20196;-83
2022/05/26 10:24:50;;;;;;;9.75;8.32;;;15.10;99.90;;;;;;5096081;28;20027;-84
2022/05/26 10:27:27;;;;;;;7.70;6.97;;;15.50;99.90;;;;;;5095863;28;20031;-84
2022/05/26 10:29:58;;;;;;;7.70;6.85;;;16.00;99.90;;;;;;5094590;28;20374;-84
2022/05/26 10:32:53;;;;;;;9.68;6.55;;;16.40;99.90;;;;;;5095306;28;20036;-84
2022/05/26 10:35:49;;;;;;;7.20;6.50;;;16.50;99.90;;;;;;5096129;28;20016;-84
2022/05/26 10:38:27;;;;;;;7.18;6.03;;;16.90;99.90;;;;;;5094666;28;20020;-84
2022/05/26 10:41:01;;;;;;;10.52;6.13;;;17.10;99.90;;;;;;5095749;28;20082;-83
2022/05/26 10:43:31;;;;;;;6.03;5.43;;;17.00;99.90;;;;;;5094280;28;20458;-84
2022/05/26 10:45:59;;;;;;;5.85;5.25;;;17.20;99.90;;;;;;5094392;28;20462;-83
2022/05/26 10:48:48;;;;;;;8.20;6.13;;;17.30;99.90;;;;;;5095412;28;20024;-84
2022/05/26 10:51:31;;;;;;;7.05;6.10;;;17.40;99.90;;;;;;5094556;28;20030;-85
2022/05/26 10:54:06;;;;;;;6.25;4.65;;;17.70;99.90;;;;;;5095857;28;20386;-84
2022/05/26 10:56:46;;;;;;;4.70;3.95;;;18.00;99.90;;;;;;5094577;28;20024;-86
2022/05/26 10:59:21;;;;;;;6.22;4.10;;;18.10;99.90;;;;;;5094291;28;20050;-83
2022/05/26 11:02:05;;;;;;;4.97;3.80;;;18.00;99.90;;;;;;5095544;28;20077;-82
2022/05/26 11:04:42;;;;;;;4.63;3.20;;;18.10;99.90;;;;;;5095491;28;20016;-85
2022/05/26 11:07:26;;;;;;;3.35;3.05;;;18.20;99.90;;;;;;5093905;28;20021;-84
2022/05/26 11:09:56;;;;;;;3.35;3.08;;;18.20;99.90;;;;;;5093656;28;20063;-85
2022/05/26 11:12:42;;;;;;;4.38;3.67;;;18.20;99.90;;;;;;5093471;28;20117;-85
2022/05/26 11:18:25;;;;;;;4.13;2.95;;;18.60;99.90;;;;;;5082589;28;20067;-85
2022/05/26 11:20:56;;;;;;;2.87;2.67;;;18.70;99.90;;;;;;5094059;28;20166;-85
2022/05/26 11:23:25;;;;;;;3.50;2.85;;;18.70;99.90;;;;;;5095206;28;20261;-85
2022/05/26 11:25:56;;;;;;;3.63;2.60;;;18.70;99.90;;;;;;5093938;28;20020;-84
2022/05/26 11:28:44;;;;;;;7.50;2.30;;;18.70;99.90;;;;;;5093861;28;20020;-86
2022/05/26 11:37:17;;;;;;;3.20;2.05;;;19.20;99.90;;;;;;5094973;28;20432;-87
2022/05/26 11:39:45;;;;;;;2.22;2.03;;;19.30;99.20;;;;;;5094035;28;20028;-86
2022/05/26 11:42:25;;;;;;;3.05;2.10;;;19.40;99.70;;;;;;5094615;28;20024;-87
2022/05/26 11:45:08;;;;;;;2.17;2.00;;;19.50;97.40;;;;;;5094654;28;20024;-87
2022/05/26 11:47:54;;;;;;;2.00;1.90;;;19.50;97.60;;;;;;5092689;28;20554;-87
2022/05/26 11:50:41;;;;;;;2.35;2.03;;;19.70;98.30;;;;;;5110019;28;20036;-86
2022/05/26 11:53:34;;;;;;;2.90;2.00;;;20.00;95.70;;;;;;5093453;28;20035;-84
2022/05/26 11:56:30;;;;;;;3.28;1.63;;;20.30;93.60;;;;;;5079823;28;20109;-88
2022/05/26 11:59:20;;;;;;;2.03;1.77;;;21.20;91.10;;;;;;5094509;28;20386;-86
2022/05/26 12:02:09;;;;;;;4.07;2.00;;;21.40;90.60;;;;;;5094513;28;20099;-86
2022/05/26 12:04:41;;;;;;;1.80;1.70;;;21.30;90.10;;;;;;5093098;28;20026;-87
2022/05/26 12:07:23;;;;;;;2.58;1.60;;;21.40;87.00;;;;;;5093027;28;20157;-84
2022/05/26 12:09:58;;;;;;;1.92;1.60;;;21.70;82.20;;;;;;5093951;28;20411;-86
2022/05/26 12:12:24;;;;;;;2.15;1.55;;;22.40;80.80;;;;;;5093370;28;20032;-86
2022/05/26 12:14:52;;;;;;;1.80;1.70;;;22.70;83.40;;;;;;5092905;28;20031;-87
2022/05/26 12:17:30;;;;;;;1.80;1.70;;;23.10;79.70;;;;;;5092591;28;20028;-86
2022/05/26 12:20:11;;;;;;;3.22;1.67;;;24.00;79.10;;;;;;5092959;28;20024;-83
2022/05/26 12:22:51;;;;;;;1.50;1.40;;;24.50;71.80;;;;;;5093934;28;20062;-84
2022/05/26 12:25:29;;;;;;;1.67;1.30;;;23.80;70.00;;;;;;5092694;28;20020;-84
2022/05/26 12:28:15;;;;;;;2.78;1.23;;;23.30;70.60;;;;;;5092396;28;20028;-84
2022/05/26 12:30:42;;;;;;;2.25;1.38;;;23.60;75.80;;;;;;5083233;28;20036;-86
2022/05/26 12:33:14;;;;;;;1.20;1.20;;;24.10;72.80;;;;;;5093045;28;20035;-86
2022/05/26 12:36:00;;;;;;;1.75;1.40;;;24.80;70.10;;;;;;5094399;28;20032;-88
2022/05/26 12:38:44;;;;;;;1.90;1.48;;;25.30;68.20;;;;;;5093497;28;20103;-89
2022/05/26 12:41:34;;;;;;;1.85;1.23;;;26.00;65.30;;;;;;5092845;28;20020;-85
2022/05/26 12:44:27;;;;;;;2.80;1.20;;;27.10;63.40;;;;;;5093583;28;20046;-83
2022/05/26 12:47:18;;;;;;;2.08;1.38;;;27.20;59.80;;;;;;5091834;28;20016;-86
2022/05/26 12:49:58;;;;;;;1.17;1.05;;;27.30;58.50;;;;;;5092588;28;20024;-87
2022/05/26 12:52:33;;;;;;;1.60;1.40;;;27.50;58.60;;;;;;5093409;28;20485;-81
2022/05/26 12:55:18;;;;;;;1.00;0.95;;;27.00;56.80;;;;;;5091904;28;20024;-82
2022/05/26 12:57:56;;;;;;;1.60;1.10;;;26.70;57.60;;;;;;5093459;28;20367;-86
2022/05/26 13:00:42;;;;;;;2.05;0.95;;;26.70;58.00;;;;;;5092121;28;20386;-85
2022/05/26 13:03:16;;;;;;;1.52;1.00;;;25.90;57.50;;;;;;5093578;28;20020;-84
2022/05/26 13:05:51;;;;;;;1.70;1.45;;;24.60;60.40;;;;;;5092372;28;20027;-84
2022/05/26 13:08:22;;;;;;;2.90;1.27;;;23.50;62.50;;;;;;5093358;28;20048;-85
2022/05/26 13:10:52;;;;;;;1.60;1.60;;;23.10;65.60;;;;;;5093749;28;20031;-86
2022/05/26 13:13:23;;;;;;;3.45;1.30;;;22.60;63.60;;;;;;5092408;28;20024;-87
2022/05/26 13:15:50;;;;;;;2.50;1.92;;;22.10;64.90;;;;;;5092413;28;20052;-85
2022/05/26 13:18:23;;;;;;;1.60;1.50;;;22.10;67.00;;;;;;5075355;28;20050;-83
2022/05/26 13:20:49;;;;;;;1.10;1.10;;;22.30;65.40;;;;;;5093015;28;20059;-86
2022/05/26 13:23:31;;;;;;;1.52;1.35;;;22.20;67.20;;;;;;5092119;28;20052;-85
2022/05/26 13:25:58;;;;;;;1.73;1.23;;;22.10;66.00;;;;;;5075652;28;20035;-86
2022/05/26 13:28:33;;;;;;;1.40;1.30;;;21.80;67.80;;;;;;5092539;28;20141;-86
2022/05/26 13:33:48;;;;;;;3.08;1.67;;;21.70;68.50;;;;;;5097658;28;20061;-86
2022/05/26 13:36:32;;;;;;;3.45;1.50;;;22.20;69.80;;;;;;5095863;28;20024;-86
2022/05/26 13:39:09;;;;;;;19.73;7.72;;;23.10;68.10;;;;;;5096889;28;20028;-89
2022/05/26 13:41:36;;;;;;;2.33;1.75;;;23.70;63.20;;;;;;5095877;28;20106;-88
2022/05/26 13:44:07;;;;;;;2.42;1.08;;;23.70;64.50;;;;;;5095749;28;20073;-87
2022/05/26 13:46:43;;;;;;;1.48;1.20;;;23.90;64.00;;;;;;5095974;28;20020;-88
2022/05/26 13:49:36;;;;;;;2.83;1.15;;;24.00;64.60;;;;;;5112880;28;20031;-87
2022/05/26 13:52:09;;;;;;;3.40;1.40;;;23.80;61.10;;;;;;5097265;28;20044;-88
2022/05/26 13:54:49;;;;;;;1.45;1.35;;;23.30;62.70;;;;;;5095640;28;20066;-89
2022/05/26 13:57:24;;;;;;;2.53;1.23;;;23.30;63.10;;;;;;5095853;28;20106;-90
2022/05/26 14:00:07;;;;;;;1.95;1.00;;;23.40;62.60;;;;;;5112394;28;20077;-85